createdAt,value
2023-02-22T00:00:26.113Z,22.4
2023-02-22T00:01:28.647Z,22.3
2023-02-22T00:02:31.164Z,22.4
2023-02-22T00:03:33.400Z,22.5
2023-02-22T00:04:36.168Z,22.5
2023-02-22T00:05:38.661Z,22.5
2023-02-22T00:06:41.144Z,22.3
2023-02-22T00:07:43.694Z,22.5
2023-02-22T00:08:45.655Z,22.3
2023-02-22T00:09:48.148Z,22.4
2023-02-22T00:10:50.361Z,22.5
2023-02-22T00:11:52.918Z,22.4
2023-02-22T00:12:55.134Z,22.4
2023-02-22T00:13:57.647Z,22.4
2023-02-22T00:15:00.217Z,22.5
2023-02-22T00:16:02.763Z,22.5
2023-02-22T00:17:05.554Z,22.6
2023-02-22T00:18:08.078Z,22.4
2023-02-22T00:19:10.292Z,22.5
2023-02-22T00:20:12.650Z,22.4
2023-02-22T00:21:15.440Z,22.6
2023-02-22T00:22:19.566Z,22.5
2023-02-22T00:23:21.819Z,22.5
2023-02-22T00:24:24.045Z,22.4
2023-02-22T00:25:26.622Z,22.4
2023-02-22T00:26:29.152Z,22.4
2023-02-22T00:27:31.381Z,22.5
2023-02-22T00:28:33.867Z,22.3
2023-02-22T00:29:36.372Z,22.4
2023-02-22T00:30:38.924Z,22.5
2023-02-22T00:31:41.404Z,22.4
2023-02-22T00:32:44.120Z,22.3
2023-02-22T00:33:46.848Z,22.4
2023-02-22T00:34:49.374Z,22.3
2023-02-22T00:35:51.798Z,22.4
2023-02-22T00:36:54.295Z,22.5
2023-02-22T00:37:56.495Z,22.6
2023-02-22T00:38:58.766Z,22.5
2023-02-22T00:40:01.008Z,22.6
2023-02-22T00:41:03.531Z,22.4
2023-02-22T00:42:05.769Z,22.5
2023-02-22T00:43:07.460Z,22.6
2023-02-22T00:44:09.952Z,22.4
2023-02-22T00:45:12.563Z,22.6
2023-02-22T00:46:14.905Z,22.7
2023-02-22T00:47:17.590Z,22.4
2023-02-22T00:48:20.096Z,22.5
2023-02-22T00:49:22.608Z,22.4
2023-02-22T00:50:24.829Z,22.5
2023-02-22T00:51:27.311Z,22.5
2023-02-22T00:52:29.825Z,22.5
2023-02-22T00:53:32.037Z,22.6
2023-02-22T00:54:33.977Z,22.5
2023-02-22T00:55:36.465Z,22.6
2023-02-22T00:56:38.730Z,22.7
2023-02-22T00:57:40.949Z,22.6
2023-02-22T00:58:43.151Z,22.6
2023-02-22T00:59:45.389Z,22.4
2023-02-22T01:00:47.963Z,22.5
2023-02-22T01:01:50.763Z,22.6
2023-02-22T01:02:53.527Z,22.5
2023-02-22T01:03:55.822Z,22.4
2023-02-22T01:04:58.626Z,22.6
2023-02-22T01:06:01.548Z,22.6
2023-02-22T01:07:04.161Z,22.6
2023-02-22T01:08:06.391Z,22.8
2023-02-22T01:09:08.916Z,22.8
2023-02-22T01:10:11.416Z,22.7
2023-02-22T01:11:13.886Z,22.8
2023-02-22T01:12:18.338Z,22.7
2023-02-22T01:13:20.820Z,22.7
2023-02-22T01:14:23.317Z,22.8
2023-02-22T01:15:25.534Z,22.7
2023-02-22T01:16:28.024Z,22.7
2023-02-22T01:17:30.546Z,22.7
2023-02-22T01:18:33.056Z,22.7
2023-02-22T01:19:35.565Z,22.6
2023-02-22T01:20:38.065Z,22.7
2023-02-22T01:21:40.645Z,22.7
2023-02-22T01:22:43.253Z,22.6
2023-02-22T01:23:45.476Z,22.7
2023-02-22T01:24:47.695Z,22.7
2023-02-22T01:25:50.219Z,22.8
2023-02-22T01:26:52.739Z,22.5
2023-02-22T01:27:54.961Z,22.7
2023-02-22T01:28:57.629Z,22.7
2023-02-22T01:30:00.145Z,22.8
2023-02-22T01:31:02.516Z,22.8
2023-02-22T01:32:04.848Z,22.6
2023-02-22T01:33:07.693Z,22.8
2023-02-22T01:34:09.915Z,22.8
2023-02-22T01:35:12.406Z,22.8
2023-02-22T01:36:14.902Z,22.7
2023-02-22T01:37:17.235Z,22.8
2023-02-22T01:38:19.565Z,22.7
2023-02-22T01:39:22.073Z,22.8
2023-02-22T01:40:24.564Z,22.7
2023-02-22T01:41:27.083Z,22.7
2023-02-22T01:42:29.605Z,22.7
2023-02-22T01:43:32.104Z,22.8
2023-02-22T01:44:34.457Z,22.9
2023-02-22T01:45:36.986Z,22.7
2023-02-22T01:46:39.571Z,22.6
2023-02-22T01:47:41.792Z,22.8
2023-02-22T01:48:44.325Z,22.8
2023-02-22T01:49:46.892Z,22.8
2023-02-22T01:50:49.124Z,22.7
2023-02-22T01:51:51.617Z,22.9
2023-02-22T01:52:54.115Z,22.8
2023-02-22T01:53:56.787Z,22.7
2023-02-22T01:54:59.285Z,22.8
2023-02-22T01:56:01.816Z,22.9
2023-02-22T01:57:04.324Z,22.8
2023-02-22T01:58:06.565Z,22.9
2023-02-22T01:59:09.056Z,22.8
2023-02-22T02:00:11.294Z,22.9
2023-02-22T02:01:13.868Z,22.8
2023-02-22T02:02:18.264Z,23
2023-02-22T02:03:20.799Z,22.9
2023-02-22T02:04:23.348Z,22.9
2023-02-22T02:05:26.067Z,22.8
2023-02-22T02:06:28.591Z,22.7
2023-02-22T02:07:31.074Z,22.9
2023-02-22T02:08:33.585Z,22.8
2023-02-22T02:09:36.268Z,23
2023-02-22T02:10:38.765Z,22.9
2023-02-22T02:11:41.262Z,22.8
2023-02-22T02:12:43.765Z,22.7
2023-02-22T02:13:46.285Z,22.8
2023-02-22T02:14:48.754Z,22.9
2023-02-22T02:15:51.260Z,22.8
2023-02-22T02:16:53.682Z,22.9
2023-02-22T02:17:56.136Z,22.9
2023-02-22T02:18:58.665Z,22.7
2023-02-22T02:20:01.201Z,22.8
2023-02-22T02:21:03.474Z,22.9
2023-02-22T02:22:05.972Z,22.7
2023-02-22T02:23:08.720Z,22.8
2023-02-22T02:24:10.938Z,22.7
2023-02-22T02:25:13.536Z,22.8
2023-02-22T02:26:15.748Z,23
2023-02-22T02:27:18.243Z,22.7
2023-02-22T02:28:20.776Z,22.8
2023-02-22T02:29:23.005Z,22.8
2023-02-22T02:30:25.538Z,22.9
2023-02-22T02:31:28.052Z,22.8
2023-02-22T02:32:30.831Z,22.7
2023-02-22T02:33:33.098Z,22.8
2023-02-22T02:34:35.672Z,22.9
2023-02-22T02:35:37.670Z,22.8
2023-02-22T02:36:40.160Z,22.8
2023-02-22T02:37:42.410Z,22.8
2023-02-22T02:38:44.953Z,22.8
2023-02-22T02:39:47.625Z,22.9
2023-02-22T02:40:50.223Z,22.6
2023-02-22T02:41:52.564Z,22.8
2023-02-22T02:42:55.079Z,22.8
2023-02-22T02:43:57.314Z,22.9
2023-02-22T02:44:59.849Z,22.7
2023-02-22T02:46:02.138Z,22.7
2023-02-22T02:47:04.649Z,22.9
2023-02-22T02:48:07.322Z,22.8
2023-02-22T02:49:09.544Z,22.8
2023-02-22T02:50:12.042Z,22.8
2023-02-22T02:51:14.930Z,22.7
2023-02-22T02:52:19.113Z,22.7
2023-02-22T02:53:21.610Z,22.7
2023-02-22T02:54:24.172Z,22.9
2023-02-22T02:55:26.676Z,22.7
2023-02-22T02:56:29.292Z,22.9
2023-02-22T02:57:31.811Z,22.9
2023-02-22T02:58:34.352Z,22.6
2023-02-22T02:59:36.885Z,22.8
2023-02-22T03:00:39.579Z,22.5
2023-02-22T03:01:42.143Z,22.9
2023-02-22T03:02:44.911Z,22.7
2023-02-22T03:03:47.165Z,22.9
2023-02-22T03:04:49.764Z,22.8
2023-02-22T03:05:52.265Z,22.7
2023-02-22T03:06:54.252Z,22.7
2023-02-22T03:07:56.775Z,22.7
2023-02-22T03:08:59.285Z,22.7
2023-02-22T03:10:01.786Z,22.7
2023-02-22T03:11:04.345Z,22.8
2023-02-22T03:12:06.705Z,22.8
2023-02-22T03:13:09.227Z,22.6
2023-02-22T03:14:11.432Z,22.8
2023-02-22T03:15:13.661Z,22.7
2023-02-22T03:16:15.988Z,22.9
2023-02-22T03:17:18.722Z,22.8
2023-02-22T03:18:20.441Z,22.7
2023-02-22T03:19:23.003Z,22.7
2023-02-22T03:20:25.515Z,22.9
2023-02-22T03:21:27.999Z,22.6
2023-02-22T03:22:30.553Z,22.6
2023-02-22T03:23:32.764Z,22.9
2023-02-22T03:24:35.272Z,22.8
2023-02-22T03:25:37.514Z,22.7
2023-02-22T03:26:40.053Z,22.7
2023-02-22T03:27:42.694Z,22.7
2023-02-22T03:28:45.674Z,22.7
2023-02-22T03:29:47.940Z,22.8
2023-02-22T03:30:50.198Z,22.7
2023-02-22T03:31:53.011Z,22.9
2023-02-22T03:32:55.751Z,22.8
2023-02-22T03:33:57.709Z,22.6
2023-02-22T03:34:59.933Z,22.7
2023-02-22T03:36:02.137Z,22.7
2023-02-22T03:37:04.372Z,22.9
2023-02-22T03:38:06.929Z,22.7
2023-02-22T03:39:09.187Z,22.8
2023-02-22T03:40:11.405Z,22.8
2023-02-22T03:41:14.188Z,22.8
2023-02-22T03:42:18.054Z,22.8
2023-02-22T03:43:20.659Z,22.8
2023-02-22T03:44:23.172Z,22.9
2023-02-22T03:45:25.693Z,22.8
2023-02-22T03:46:28.018Z,22.8
2023-02-22T03:47:30.876Z,22.8
2023-02-22T03:48:33.507Z,22.8
2023-02-22T03:49:36.034Z,22.8
2023-02-22T03:50:38.284Z,22.8
2023-02-22T03:51:40.806Z,22.8
2023-02-22T03:52:43.355Z,22.8
2023-02-22T03:53:45.923Z,22.9
2023-02-22T03:54:48.445Z,22.8
2023-02-22T03:55:50.941Z,23
2023-02-22T03:56:53.442Z,22.9
2023-02-22T03:57:55.709Z,22.8
2023-02-22T03:58:58.387Z,22.9
2023-02-22T04:00:00.930Z,22.9
2023-02-22T04:01:03.261Z,22.9
2023-02-22T04:02:05.800Z,22.9
2023-02-22T04:03:07.498Z,22.9
2023-02-22T04:04:10.059Z,22.8
2023-02-22T04:05:12.600Z,23
2023-02-22T04:06:14.829Z,22.8
2023-02-22T04:07:17.331Z,22.9
2023-02-22T04:08:19.584Z,22.8
2023-02-22T04:09:22.130Z,22.8
2023-02-22T04:10:24.650Z,22.8
2023-02-22T04:11:27.157Z,22.9
2023-02-22T04:12:29.098Z,22.8
2023-02-22T04:13:31.297Z,22.8
2023-02-22T04:14:33.931Z,22.8
2023-02-22T04:15:36.442Z,22.7
2023-02-22T04:16:39.324Z,22.9
2023-02-22T04:17:41.289Z,22.8
2023-02-22T04:18:43.790Z,22.7
2023-02-22T04:19:46.034Z,22.7
2023-02-22T04:20:48.285Z,22.5
2023-02-22T04:21:50.500Z,22.5
2023-02-22T04:22:52.738Z,22.8
2023-02-22T04:23:54.953Z,22.7
2023-02-22T04:24:57.504Z,22.8
2023-02-22T04:26:00.012Z,22.6
2023-02-22T04:27:02.522Z,22.6
2023-02-22T04:28:05.037Z,22.6
2023-02-22T04:29:07.546Z,22.7
2023-02-22T04:30:10.189Z,22.7
2023-02-22T04:31:13.020Z,22.6
2023-02-22T04:32:16.437Z,22.7
2023-02-22T04:33:19.145Z,22.6
2023-02-22T04:34:21.890Z,22.4
2023-02-22T04:35:24.776Z,22.5
2023-02-22T04:36:27.372Z,22.6
2023-02-22T04:37:29.887Z,22.6
2023-02-22T04:38:32.154Z,22.6
2023-02-22T04:39:34.502Z,22.6
2023-02-22T04:40:36.941Z,22.7
2023-02-22T04:41:39.462Z,22.7
2023-02-22T04:42:41.705Z,22.5
2023-02-22T04:43:44.222Z,22.7
2023-02-22T04:44:46.774Z,22.6
2023-02-22T04:45:49.397Z,22.7
2023-02-22T04:46:51.912Z,22.5
2023-02-22T04:47:54.430Z,22.6
2023-02-22T04:48:56.943Z,22.6
2023-02-22T04:49:59.460Z,22.4
2023-02-22T04:51:02.099Z,22.6
2023-02-22T04:52:04.658Z,22.5
2023-02-22T04:53:07.192Z,22.6
2023-02-22T04:54:09.418Z,22.5
2023-02-22T04:55:11.914Z,22.5
2023-02-22T04:56:14.514Z,22.5
2023-02-22T04:57:17.009Z,22.6
2023-02-22T04:58:19.222Z,22.5
2023-02-22T04:59:21.737Z,22.6
2023-02-22T05:00:24.177Z,22.5
2023-02-22T05:01:26.795Z,22.5
2023-02-22T05:02:28.999Z,22.5
2023-02-22T05:03:31.420Z,22.6
2023-02-22T05:04:33.981Z,22.4
2023-02-22T05:05:36.555Z,22.6
2023-02-22T05:06:39.073Z,22.4
2023-02-22T05:07:41.609Z,22.4
2023-02-22T05:08:43.845Z,22.5
2023-02-22T05:09:46.393Z,22.5
2023-02-22T05:10:48.397Z,22.4
2023-02-22T05:11:50.926Z,22.5
2023-02-22T05:12:53.475Z,22.5
2023-02-22T05:13:55.691Z,22.5
2023-02-22T05:14:57.957Z,22.5
2023-02-22T05:16:00.540Z,22.5
2023-02-22T05:17:03.489Z,22.4
2023-02-22T05:18:05.994Z,22.4
2023-02-22T05:19:08.513Z,22.4
2023-02-22T05:20:10.763Z,22.6
2023-02-22T05:21:13.283Z,22.5
2023-02-22T05:22:16.480Z,22.5
2023-02-22T05:23:18.708Z,22.4
2023-02-22T05:24:21.262Z,22.5
2023-02-22T05:25:23.741Z,22.5
2023-02-22T05:26:26.051Z,22.5
2023-02-22T05:27:28.579Z,22.6
2023-02-22T05:28:31.088Z,22.5
2023-02-22T05:29:33.598Z,22.5
2023-02-22T05:30:36.169Z,22.5
2023-02-22T05:31:39.019Z,22.5
2023-02-22T05:32:42.125Z,22.6
2023-02-22T05:33:48.076Z,22.6
2023-02-22T05:34:50.612Z,22.5
2023-02-22T05:35:53.114Z,22.4
2023-02-22T05:36:55.336Z,22.4
2023-02-22T05:37:57.577Z,22.4
2023-02-22T05:39:00.091Z,22.5
2023-02-22T05:40:02.660Z,22.6
2023-02-22T05:41:05.173Z,22.5
2023-02-22T05:42:07.690Z,22.4
2023-02-22T05:43:10.257Z,22.5
2023-02-22T05:44:12.508Z,22.4
2023-02-22T05:45:15.007Z,22.4
2023-02-22T05:46:17.535Z,22.2
2023-02-22T05:47:20.316Z,22.5
2023-02-22T05:48:22.928Z,22.5
2023-02-22T05:49:25.167Z,22.4
2023-02-22T05:50:27.680Z,22.6
2023-02-22T05:51:30.229Z,22.5
2023-02-22T05:52:32.739Z,22.5
2023-02-22T05:53:35.252Z,22.5
2023-02-22T05:54:37.497Z,22.5
2023-02-22T05:55:40.029Z,22.3
2023-02-22T05:56:42.553Z,22.4
2023-02-22T05:57:45.052Z,22.5
2023-02-22T05:58:47.592Z,22.3
2023-02-22T05:59:50.096Z,22.4
2023-02-22T06:00:52.299Z,22.4
2023-02-22T06:01:54.811Z,22.5
2023-02-22T06:02:57.614Z,22.3
2023-02-22T06:04:00.265Z,22.4
2023-02-22T06:05:02.511Z,22.5
2023-02-22T06:06:04.739Z,22.2
2023-02-22T06:07:07.261Z,22.4
2023-02-22T06:08:09.754Z,22.5
2023-02-22T06:09:12.022Z,22.3
2023-02-22T06:10:14.589Z,22.3
2023-02-22T06:11:17.171Z,22.5
2023-02-22T06:12:20.923Z,22.2
2023-02-22T06:13:23.508Z,22.3
2023-02-22T06:14:26.041Z,22.3
2023-02-22T06:15:28.308Z,22.5
2023-02-22T06:16:30.928Z,22.3
2023-02-22T06:17:33.657Z,22.5
2023-02-22T06:18:36.169Z,22.4
2023-02-22T06:19:38.769Z,22.6
2023-02-22T06:20:41.280Z,22.4
2023-02-22T06:21:43.958Z,22.4
2023-02-22T06:22:46.482Z,22.4
2023-02-22T06:23:48.533Z,22.5
2023-02-22T06:24:51.653Z,22.4
2023-02-22T06:25:57.671Z,22.4
2023-02-22T06:27:00.193Z,22.3
2023-02-22T06:28:02.404Z,22.3
2023-02-22T06:29:04.963Z,22.3
2023-02-22T06:30:07.034Z,22.4
2023-02-22T06:31:11.889Z,22.3
2023-02-22T06:32:14.348Z,22.3
2023-02-22T06:33:17.218Z,22.4
2023-02-22T06:34:19.765Z,22.3
2023-02-22T06:35:22.480Z,22.5
2023-02-22T06:36:25.008Z,22.3
2023-02-22T06:37:26.664Z,22.2
2023-02-22T06:38:28.891Z,22.4
2023-02-22T06:39:31.387Z,22.3
2023-02-22T06:40:33.657Z,22.5
2023-02-22T06:41:35.914Z,22.3
2023-02-22T06:42:38.123Z,22.4
2023-02-22T06:43:40.646Z,22.2
2023-02-22T06:44:42.902Z,22.3
2023-02-22T06:45:45.195Z,22.4
2023-02-22T06:46:47.981Z,22.3
2023-02-22T06:47:50.490Z,22.4
2023-02-22T06:48:53.004Z,22.3
2023-02-22T06:49:55.346Z,22.3
2023-02-22T06:50:57.962Z,22.4
2023-02-22T06:52:00.468Z,22.3
2023-02-22T06:53:02.995Z,22.4
2023-02-22T06:54:05.522Z,22.2
2023-02-22T06:55:07.744Z,22.4
2023-02-22T06:56:10.252Z,22.4
2023-02-22T06:57:12.484Z,22.4
2023-02-22T06:58:14.990Z,22.3
2023-02-22T06:59:17.336Z,22.3
2023-02-22T07:00:19.844Z,22.3
2023-02-22T07:01:22.466Z,22.4
2023-02-22T07:02:25.046Z,22.4
2023-02-22T07:03:27.576Z,22.4
2023-02-22T07:04:30.048Z,22.4
2023-02-22T07:05:32.554Z,22.4
2023-02-22T07:06:35.170Z,22.4
2023-02-22T07:07:37.653Z,22.3
2023-02-22T07:08:40.156Z,22.3
2023-02-22T07:09:43.838Z,22.2
2023-02-22T07:10:47.359Z,22.3
2023-02-22T07:11:49.302Z,22.2
2023-02-22T07:12:51.513Z,22.3
2023-02-22T07:13:53.814Z,22.3
2023-02-22T07:14:56.315Z,22.3
2023-02-22T07:15:58.815Z,22.4
2023-02-22T07:17:01.609Z,22.4
2023-02-22T07:18:04.128Z,22.3
2023-02-22T07:19:06.727Z,22.3
2023-02-22T07:20:08.958Z,22.3
2023-02-22T07:21:11.202Z,22.1
2023-02-22T07:22:13.772Z,22.4
2023-02-22T07:23:16.057Z,22.3
2023-02-22T07:24:18.554Z,22.3
2023-02-22T07:25:20.776Z,22.4
2023-02-22T07:26:23.021Z,22.4
2023-02-22T07:27:25.310Z,22.3
2023-02-22T07:28:27.561Z,22.2
2023-02-22T07:29:30.074Z,22.3
2023-02-22T07:30:32.477Z,22.2
2023-02-22T07:31:35.657Z,22.3
2023-02-22T07:32:37.786Z,22.3
2023-02-22T07:33:41.056Z,22.2
2023-02-22T07:34:43.570Z,22.3
2023-02-22T07:35:45.843Z,22.4
2023-02-22T07:36:48.110Z,22.2
2023-02-22T07:37:50.716Z,22.3
2023-02-22T07:38:57.888Z,22.3
2023-02-22T07:40:00.397Z,22.3
2023-02-22T07:41:02.893Z,22.2
2023-02-22T07:42:05.137Z,22.2
2023-02-22T07:43:07.646Z,22.2
2023-02-22T07:44:09.573Z,22.3
2023-02-22T07:45:11.485Z,22.4
2023-02-22T07:46:13.990Z,22.3
2023-02-22T07:47:15.936Z,22.3
2023-02-22T07:48:18.217Z,22.2
2023-02-22T07:49:20.763Z,22.4
2023-02-22T07:50:23.000Z,22.2
2023-02-22T07:51:25.550Z,22.3
2023-02-22T07:52:27.804Z,22.3
2023-02-22T07:53:30.308Z,22.3
2023-02-22T07:54:32.900Z,22.3
2023-02-22T07:55:34.663Z,22.2
2023-02-22T07:56:36.929Z,22.1
2023-02-22T07:57:39.452Z,22.3
2023-02-22T07:58:41.695Z,22.2
2023-02-22T07:59:44.203Z,22.2
2023-02-22T08:00:46.716Z,22.2
2023-02-22T08:01:49.245Z,22.2
2023-02-22T08:02:51.519Z,22.4
2023-02-22T08:03:53.845Z,22.4
2023-02-22T08:04:56.047Z,22.3
2023-02-22T08:05:58.573Z,22.2
2023-02-22T08:07:01.161Z,22.4
2023-02-22T08:08:03.655Z,22.3
2023-02-22T08:09:06.287Z,22.2
2023-02-22T08:10:08.824Z,22.3
2023-02-22T08:11:11.342Z,22.4
2023-02-22T08:12:13.559Z,22.4
2023-02-22T08:13:15.812Z,22.3
2023-02-22T08:14:18.377Z,22.3
2023-02-22T08:15:20.890Z,22.3
2023-02-22T08:16:23.141Z,22.3
2023-02-22T08:17:25.656Z,22.3
2023-02-22T08:18:28.182Z,22.2
2023-02-22T08:19:30.745Z,22.3
2023-02-22T08:20:33.258Z,22.2
2023-02-22T08:21:35.776Z,22.4
2023-02-22T08:22:38.406Z,22.4
2023-02-22T08:23:40.964Z,22.2
2023-02-22T08:24:43.572Z,22.3
2023-02-22T08:25:45.801Z,22.4
2023-02-22T08:26:48.351Z,22.3
2023-02-22T08:27:50.878Z,22.4
2023-02-22T08:28:53.374Z,22.3
2023-02-22T08:29:55.884Z,22.5
2023-02-22T08:30:58.128Z,22.4
2023-02-22T08:32:00.534Z,22.5
2023-02-22T08:33:03.990Z,22.3
2023-02-22T08:34:07.191Z,22.5
2023-02-22T08:35:09.466Z,22.4
2023-02-22T08:36:11.656Z,22.2
2023-02-22T08:37:13.900Z,22.4
2023-02-22T08:38:16.425Z,22.3
2023-02-22T08:39:18.975Z,22.2
2023-02-22T08:40:21.607Z,22.3
2023-02-22T08:41:23.834Z,22.2
2023-02-22T08:42:26.338Z,22.4
2023-02-22T08:43:28.606Z,22.3
2023-02-22T08:44:31.158Z,22.4
2023-02-22T08:45:33.694Z,22.4
2023-02-22T08:46:36.460Z,22.2
2023-02-22T08:47:39.003Z,22.4
2023-02-22T08:48:41.250Z,22.4
2023-02-22T08:49:43.442Z,22.4
2023-02-22T08:50:46.047Z,22.2
2023-02-22T08:51:48.594Z,22.4
2023-02-22T08:52:51.136Z,22.3
2023-02-22T08:53:53.371Z,22.3
2023-02-22T08:54:55.886Z,22.4
2023-02-22T08:55:58.497Z,22.4
2023-02-22T08:57:00.750Z,22.2
2023-02-22T08:58:03.644Z,22.5
2023-02-22T08:59:05.904Z,22.4
2023-02-22T09:00:08.414Z,22.3
2023-02-22T09:01:10.901Z,22.3
2023-02-22T09:02:18.407Z,22.5
2023-02-22T09:03:20.964Z,22.4
2023-02-22T09:04:23.176Z,22.3
2023-02-22T09:05:25.697Z,22.4
2023-02-22T09:06:28.696Z,22.3
2023-02-22T09:07:31.468Z,22.3
2023-02-22T09:08:33.997Z,22.5
2023-02-22T09:09:36.237Z,22.3
2023-02-22T09:10:38.766Z,22.3
2023-02-22T09:11:41.452Z,22.3
2023-02-22T09:12:43.958Z,22.4
2023-02-22T09:13:46.473Z,22.4
2023-02-22T09:14:49.085Z,22.4
2023-02-22T09:15:51.605Z,22.3
2023-02-22T09:16:53.914Z,22.4
2023-02-22T09:17:56.492Z,22.3
2023-02-22T09:18:59.056Z,22.4
2023-02-22T09:20:01.713Z,22.3
2023-02-22T09:21:03.961Z,22.3
2023-02-22T09:22:06.256Z,22.4
2023-02-22T09:23:08.571Z,22.5
2023-02-22T09:24:11.067Z,22.5
2023-02-22T09:25:16.891Z,22.4
2023-02-22T09:26:18.573Z,22.3
2023-02-22T09:27:21.177Z,22.3
2023-02-22T09:28:23.417Z,22.4
2023-02-22T09:29:25.674Z,22.4
2023-02-22T09:30:28.003Z,22.3
2023-02-22T09:31:30.710Z,22.4
2023-02-22T09:32:33.702Z,22.3
2023-02-22T09:33:36.808Z,22.4
2023-02-22T09:34:39.376Z,22.4
2023-02-22T09:35:41.919Z,22.3
2023-02-22T09:36:44.628Z,22.4
2023-02-22T09:37:46.904Z,22.4
2023-02-22T09:38:49.422Z,22.3
2023-02-22T09:39:51.940Z,22.3
2023-02-22T09:40:54.819Z,22.2
2023-02-22T09:41:57.339Z,22.4
2023-02-22T09:42:59.946Z,22.3
2023-02-22T09:44:02.466Z,22.2
2023-02-22T09:45:04.962Z,22.3
2023-02-22T09:46:07.723Z,22.2
2023-02-22T09:47:10.514Z,22.4
2023-02-22T09:48:21.523Z,22.2
2023-02-22T09:49:18.147Z,22.3
2023-02-22T09:50:20.644Z,22.3
2023-02-22T09:51:23.370Z,22.4
2023-02-22T09:52:25.621Z,22.3
2023-02-22T09:53:28.235Z,22.4
2023-02-22T09:54:30.880Z,22.4
2023-02-22T09:55:33.098Z,22.3
2023-02-22T09:56:35.344Z,22.3
2023-02-22T09:57:37.614Z,22.3
2023-02-22T09:58:41.853Z,22.3
2023-02-22T09:59:44.554Z,22.4
2023-02-22T10:00:47.062Z,22.3
2023-02-22T10:01:49.592Z,22.4
2023-02-22T10:02:52.083Z,22.2
2023-02-22T10:03:54.129Z,22.5
2023-02-22T10:04:56.618Z,22.3
2023-02-22T10:05:59.222Z,22.4
2023-02-22T10:07:01.761Z,22.4
2023-02-22T10:08:03.746Z,22.4
2023-02-22T10:09:06.287Z,22.3
2023-02-22T10:10:08.634Z,22.4
2023-02-22T10:11:11.171Z,22.4
2023-02-22T10:12:13.410Z,22.4
2023-02-22T10:13:15.925Z,22.4
2023-02-22T10:14:18.531Z,22.4
2023-02-22T10:15:21.081Z,22.3
2023-02-22T10:16:23.617Z,22.4
2023-02-22T10:17:26.314Z,22.4
2023-02-22T10:18:28.907Z,22.4
2023-02-22T10:19:31.396Z,22.3
2023-02-22T10:20:33.070Z,22.4
2023-02-22T10:21:35.572Z,22.4
2023-02-22T10:22:38.113Z,22.3
2023-02-22T10:23:40.377Z,22.4
2023-02-22T10:24:42.929Z,22.3
2023-02-22T10:25:45.349Z,22.4
2023-02-22T10:26:47.904Z,22.4
2023-02-22T10:27:50.433Z,22.3
2023-02-22T10:28:52.693Z,22.4
2023-02-22T10:29:55.333Z,22.4
2023-02-22T10:30:57.647Z,22.4
2023-02-22T10:32:00.665Z,22.4
2023-02-22T10:33:03.257Z,22.3
2023-02-22T10:34:05.807Z,22.3
2023-02-22T10:35:08.321Z,22.2
2023-02-22T10:36:10.837Z,22.4
2023-02-22T10:37:13.091Z,22.4
2023-02-22T10:38:15.766Z,22.2
2023-02-22T10:39:18.422Z,22.3
2023-02-22T10:40:21.566Z,22.4
2023-02-22T10:41:23.916Z,22.2
2023-02-22T10:42:26.185Z,22.4
2023-02-22T10:43:28.166Z,22.3
2023-02-22T10:44:30.425Z,22.4
2023-02-22T10:45:33.134Z,22.2
2023-02-22T10:46:35.822Z,22.3
2023-02-22T10:47:38.356Z,22.2
2023-02-22T10:48:40.858Z,22.3
2023-02-22T10:49:43.143Z,22.3
2023-02-22T10:50:45.371Z,22.4
2023-02-22T10:51:47.912Z,22.3
2023-02-22T10:52:50.409Z,22.4
2023-02-22T10:53:52.978Z,22.1
2023-02-22T10:54:58.843Z,22.2
2023-02-22T10:56:00.028Z,22.2
2023-02-22T10:57:02.463Z,22.3
2023-02-22T10:58:04.983Z,22.2
2023-02-22T10:59:07.533Z,22.4
2023-02-22T11:00:10.072Z,22.4
2023-02-22T11:01:12.861Z,22.3
2023-02-22T11:02:15.768Z,22.4
2023-02-22T11:03:18.008Z,22.3
2023-02-22T11:04:20.260Z,22.4
2023-02-22T11:05:22.854Z,22.4
2023-02-22T11:06:25.405Z,22.3
2023-02-22T11:07:27.892Z,22.4
2023-02-22T11:08:30.461Z,22.2
2023-02-22T11:09:32.708Z,22.3
2023-02-22T11:10:35.235Z,22.3
2023-02-22T11:11:37.787Z,22.4
2023-02-22T11:12:40.419Z,22.3
2023-02-22T11:13:43.034Z,22.2
2023-02-22T11:14:45.242Z,22.4
2023-02-22T11:15:47.504Z,22.2
2023-02-22T11:16:50.325Z,22.3
2023-02-22T11:17:53.313Z,22.3
2023-02-22T11:18:55.839Z,22.4
2023-02-22T11:19:58.358Z,22.3
2023-02-22T11:21:00.855Z,22.4
2023-02-22T11:22:03.369Z,22.5
2023-02-22T11:23:05.589Z,22.3
2023-02-22T11:24:08.106Z,22.3
2023-02-22T11:25:10.648Z,22.3
2023-02-22T11:26:13.146Z,22.4
2023-02-22T11:27:15.780Z,22.3
2023-02-22T11:28:18.001Z,22.6
2023-02-22T11:29:19.933Z,22.3
2023-02-22T11:30:22.293Z,22.3
2023-02-22T11:31:24.977Z,22.4
2023-02-22T11:32:27.996Z,22.4
2023-02-22T11:33:29.939Z,22.5
2023-02-22T11:34:32.508Z,22.5
2023-02-22T11:35:35.079Z,22.5
2023-02-22T11:36:37.387Z,22.4
2023-02-22T11:37:39.943Z,22.4
2023-02-22T11:38:42.448Z,22.6
2023-02-22T11:39:45.031Z,22.5
2023-02-22T11:40:47.870Z,22.3
2023-02-22T11:41:50.387Z,22.4
2023-02-22T11:42:52.956Z,22.4
2023-02-22T11:43:55.506Z,22.3
2023-02-22T11:44:58.043Z,22.3
2023-02-22T11:46:01.976Z,22.5
2023-02-22T11:47:05.125Z,22.6
2023-02-22T11:48:07.776Z,22.4
2023-02-22T11:49:09.985Z,22.4
2023-02-22T11:50:12.511Z,22.4
2023-02-22T11:51:15.130Z,22.5
2023-02-22T11:52:19.117Z,22.4
2023-02-22T11:53:21.615Z,22.5
2023-02-22T11:54:24.274Z,22.4
2023-02-22T11:55:41.428Z,22.4
2023-02-22T11:56:37.504Z,22.4
2023-02-22T11:57:36.748Z,22.5
2023-02-22T11:58:39.022Z,22.4
2023-02-22T11:59:41.537Z,22.4
2023-02-22T12:00:44.082Z,22.3
2023-02-22T12:01:46.299Z,22.4
2023-02-22T12:02:56.827Z,22.3
2023-02-22T12:03:53.847Z,22.4
2023-02-22T12:04:57.253Z,22.5
2023-02-22T12:06:00.081Z,22.6
2023-02-22T12:07:02.723Z,22.4
2023-02-22T12:08:13.845Z,22.6
2023-02-22T12:09:09.940Z,22.6
2023-02-22T12:10:12.442Z,22.4
2023-02-22T12:11:14.985Z,22.3
2023-02-22T12:12:17.221Z,22.4
2023-02-22T12:13:19.144Z,22.3
2023-02-22T12:14:21.816Z,22.4
2023-02-22T12:15:24.023Z,22.4
2023-02-22T12:16:26.520Z,22.4
2023-02-22T12:17:29.065Z,22.4
2023-02-22T12:18:31.361Z,22.6
2023-02-22T12:19:33.623Z,22.3
2023-02-22T12:20:36.233Z,22.4
2023-02-22T12:21:38.756Z,22.3
2023-02-22T12:22:41.254Z,22.4
2023-02-22T12:23:43.762Z,22.4
2023-02-22T12:24:46.284Z,22.4
2023-02-22T12:25:54.304Z,22.3
2023-02-22T12:26:56.529Z,22.3
2023-02-22T12:27:59.109Z,22.4
2023-02-22T12:29:02.758Z,22.5
2023-02-22T12:30:05.074Z,22.4
2023-02-22T12:31:07.987Z,22.4
2023-02-22T12:32:10.206Z,22.4
2023-02-22T12:33:13.494Z,22.4
2023-02-22T12:34:16.074Z,22.3
2023-02-22T12:35:18.516Z,22.5
2023-02-22T12:36:21.465Z,22.4
2023-02-22T12:37:24.035Z,22.4
2023-02-22T12:38:26.566Z,22.5
2023-02-22T12:39:28.801Z,22.5
2023-02-22T12:40:35.623Z,22.4
2023-02-22T12:41:38.237Z,22.6
2023-02-22T12:42:40.744Z,22.5
2023-02-22T12:43:43.308Z,22.4
2023-02-22T12:44:45.255Z,22.4
2023-02-22T12:45:47.787Z,22.4
2023-02-22T12:46:50.317Z,22.5
2023-02-22T12:47:52.292Z,22.5
2023-02-22T12:48:54.504Z,22.4
2023-02-22T12:49:57.027Z,22.5
2023-02-22T12:50:59.533Z,22.3
2023-02-22T12:52:09.670Z,22.6
2023-02-22T12:53:07.149Z,22.4
2023-02-22T12:54:09.376Z,22.4
2023-02-22T12:55:11.621Z,22.5
2023-02-22T12:56:14.117Z,22.4
2023-02-22T12:57:16.612Z,22.4
2023-02-22T12:58:19.130Z,22.4
2023-02-22T12:59:21.371Z,22.6
2023-02-22T13:00:23.326Z,22.4
2023-02-22T13:01:25.634Z,22.6
2023-02-22T13:02:28.102Z,22.4
2023-02-22T13:03:30.635Z,22.5
2023-02-22T13:04:33.163Z,22.4
2023-02-22T13:05:35.748Z,22.4
2023-02-22T13:06:38.533Z,22.4
2023-02-22T13:07:41.182Z,22.4
2023-02-22T13:08:43.674Z,22.4
2023-02-22T13:09:45.915Z,22.6
2023-02-22T13:10:47.899Z,22.4
2023-02-22T13:11:50.486Z,22.6
2023-02-22T13:12:53.048Z,22.6
2023-02-22T13:13:55.551Z,22.5
2023-02-22T13:14:57.770Z,22.6
2023-02-22T13:16:00.044Z,22.5
2023-02-22T13:17:02.491Z,22.5
2023-02-22T13:18:05.034Z,22.4
2023-02-22T13:19:07.568Z,22.5
2023-02-22T13:20:09.919Z,22.6
2023-02-22T13:21:12.308Z,22.5
2023-02-22T13:22:14.055Z,22.4
2023-02-22T13:23:16.710Z,22.4
2023-02-22T13:24:18.661Z,22.4
2023-02-22T13:25:20.907Z,22.4
2023-02-22T13:26:23.140Z,22.6
2023-02-22T13:27:24.843Z,22.5
2023-02-22T13:28:27.406Z,22.4
2023-02-22T13:29:29.931Z,22.4
2023-02-22T13:30:32.266Z,22.4
2023-02-22T13:31:36.549Z,22.3
2023-02-22T13:32:42.372Z,22.4
2023-02-22T13:33:44.869Z,22.4
2023-02-22T13:34:47.359Z,22.4
2023-02-22T13:35:49.931Z,22.5
2023-02-22T13:36:52.482Z,22.4
2023-02-22T13:37:54.711Z,22.5
2023-02-22T13:38:57.328Z,22.4
2023-02-22T13:39:59.832Z,22.5
2023-02-22T13:41:02.148Z,22.5
2023-02-22T13:42:04.109Z,22.3
2023-02-22T13:43:06.652Z,22.5
2023-02-22T13:44:09.187Z,22.5
2023-02-22T13:45:11.781Z,22.6
2023-02-22T13:46:14.390Z,22.5
2023-02-22T13:47:18.284Z,22.6
2023-02-22T13:48:20.830Z,22.6
2023-02-22T13:49:25.569Z,22.4
2023-02-22T13:50:28.120Z,22.5
2023-02-22T13:51:30.338Z,22.6
2023-02-22T13:52:32.834Z,22.5